sensor_id;sensor_type;location;lat;lon;timestamp;pressure;altitude;pressure_sealevel;temperature;humidity
10852;BME280;5479;52.046;6.314;2023-02-28T00:01:12;103077.94;;;1.62;100.00
10852;BME280;5479;52.046;6.314;2023-02-28T00:03:40;103079.66;;;1.61;100.00
10852;BME280;5479;52.046;6.314;2023-02-28T00:06:10;103076.34;;;1.73;100.00
10852;BME280;5479;52.046;6.314;2023-02-28T00:08:38;103083.34;;;1.75;100.00
10852;BME280;5479;52.046;6.314;2023-02-28T00:11:09;103083.44;;;1.83;100.00
10852;BME280;5479;52.046;6.314;2023-02-28T00:13:39;103085.97;;;1.77;100.00
10852;BME280;5479;52.046;6.314;2023-02-28T00:16:09;103071.44;;;1.99;100.00
10852;BME280;5479;52.046;6.314;2023-02-28T00:18:37;103079.41;;;2.09;100.00
10852;BME280;5479;52.046;6.314;2023-02-28T00:21:06;103075.00;;;2.05;100.00
10852;BME280;5479;52.046;6.314;2023-02-28T00:23:37;103071.53;;;2.06;100.00
10852;BME280;5479;52.046;6.314;2023-02-28T00:26:05;103071.69;;;2.18;100.00
10852;BME280;5479;52.046;6.314;2023-02-28T00:28:33;103072.44;;;2.08;100.00
10852;BME280;5479;52.046;6.314;2023-02-28T00:31:01;103071.56;;;2.08;100.00
10852;BME280;5479;52.046;6.314;2023-02-28T00:33:29;103068.97;;;2.11;100.00
10852;BME280;5479;52.046;6.314;2023-02-28T00:36:04;103077.72;;;2.13;100.00
10852;BME280;5479;52.046;6.314;2023-02-28T00:38:33;103073.38;;;2.13;100.00
10852;BME280;5479;52.046;6.314;2023-02-28T00:41:02;103068.09;;;2.10;100.00
10852;BME280;5479;52.046;6.314;2023-02-28T00:43:32;103075.91;;;2.07;100.00
10852;BME280;5479;52.046;6.314;2023-02-28T00:46:00;103075.19;;;2.20;100.00
10852;BME280;5479;52.046;6.314;2023-02-28T00:48:28;103075.09;;;2.14;100.00
10852;BME280;5479;52.046;6.314;2023-02-28T00:50:56;103075.00;;;2.05;100.00
10852;BME280;5479;52.046;6.314;2023-02-28T00:53:25;103065.59;;;2.19;100.00
10852;BME280;5479;52.046;6.314;2023-02-28T00:55:53;103068.19;;;2.16;100.00
10852;BME280;5479;52.046;6.314;2023-02-28T00:58:22;103068.22;;;2.21;100.00
10852;BME280;5479;52.046;6.314;2023-02-28T01:00:50;103059.41;;;2.11;100.00
10852;BME280;5479;52.046;6.314;2023-02-28T01:03:20;103066.41;;;2.15;100.00
10852;BME280;5479;52.046;6.314;2023-02-28T01:05:49;103062.16;;;2.22;100.00
10852;BME280;5479;52.046;6.314;2023-02-28T01:08:16;103065.56;;;2.18;100.00
10852;BME280;5479;52.046;6.314;2023-02-28T01:10:45;103062.94;;;2.16;100.00
10852;BME280;5479;52.046;6.314;2023-02-28T01:13:15;103069.09;;;2.21;100.00
10852;BME280;5479;52.046;6.314;2023-02-28T01:15:49;103073.53;;;2.27;100.00
10852;BME280;5479;52.046;6.314;2023-02-28T01:18:19;103070.91;;;2.28;100.00
10852;BME280;5479;52.046;6.314;2023-02-28T01:20:49;103075.41;;;2.41;100.00
10852;BME280;5479;52.046;6.314;2023-02-28T01:23:18;103077.94;;;2.32;100.00
10852;BME280;5479;52.046;6.314;2023-02-28T01:25:46;103072.72;;;2.32;100.00
10852;BME280;5479;52.046;6.314;2023-02-28T01:28:14;103069.16;;;2.27;100.00
10852;BME280;5479;52.046;6.314;2023-02-28T01:30:42;103074.19;;;2.08;100.00
10852;BME280;5479;52.046;6.314;2023-02-28T01:33:11;103074.13;;;2.06;100.00
10852;BME280;5479;52.046;6.314;2023-02-28T01:35:39;103077.59;;;2.04;100.00
10852;BME280;5479;52.046;6.314;2023-02-28T01:38:07;103073.44;;;2.19;100.00
10852;BME280;5479;52.046;6.314;2023-02-28T01:40:34;103073.25;;;2.03;100.00
10852;BME280;5479;52.046;6.314;2023-02-28T01:43:04;103074.19;;;2.08;100.00
10852;BME280;5479;52.046;6.314;2023-02-28T01:45:34;103068.91;;;2.03;100.00
10852;BME280;5479;52.046;6.314;2023-02-28T01:48:05;103068.03;;;2.04;100.00
10852;BME280;5479;52.046;6.314;2023-02-28T01:50:39;103074.22;;;2.11;100.00
10852;BME280;5479;52.046;6.314;2023-02-28T01:53:12;103069.19;;;2.30;100.00
10852;BME280;5479;52.046;6.314;2023-02-28T01:55:42;103064.84;;;2.29;100.00
10852;BME280;5479;52.046;6.314;2023-02-28T01:58:12;103069.16;;;2.27;100.00
10852;BME280;5479;52.046;6.314;2023-02-28T02:00:40;103067.28;;;2.16;100.00
10852;BME280;5479;52.046;6.314;2023-02-28T02:03:12;103070.75;;;2.13;100.00
10852;BME280;5479;52.046;6.314;2023-02-28T02:05:42;103073.38;;;2.13;100.00
10852;BME280;5479;52.046;6.314;2023-02-28T02:08:16;103074.25;;;2.15;100.00
10852;BME280;5479;52.046;6.314;2023-02-28T02:10:47;103060.31;;;2.15;100.00
10852;BME280;5479;52.046;6.314;2023-02-28T02:13:29;103063.75;;;2.12;100.00
10852;BME280;5479;52.046;6.314;2023-02-28T02:16:07;103072.69;;;2.29;100.00
10852;BME280;5479;52.046;6.314;2023-02-28T02:18:43;103062.03;;;2.13;100.00
10852;BME280;5479;52.046;6.314;2023-02-28T02:21:34;103065.44;;;2.09;100.00
10852;BME280;5479;52.046;6.314;2023-02-28T02:27:20;103057.72;;;2.16;100.00
10852;BME280;5479;52.046;6.314;2023-02-28T02:30:32;103054.19;;;2.14;100.00
10852;BME280;5479;52.046;6.314;2023-02-28T02:33:27;103070.03;;;2.26;100.00
10852;BME280;5479;52.046;6.314;2023-02-28T02:36:02;103064.78;;;2.26;100.00
10852;BME280;5479;52.046;6.314;2023-02-28T02:38:37;103060.44;;;2.27;100.00
10852;BME280;5479;52.046;6.314;2023-02-28T02:41:12;103066.50;;;2.21;100.00
10852;BME280;5479;52.046;6.314;2023-02-28T02:43:46;103063.09;;;2.31;100.00
10852;BME280;5479;52.046;6.314;2023-02-28T02:46:19;103064.91;;;2.38;100.00
10852;BME280;5479;52.046;6.314;2023-02-28T02:48:49;103063.13;;;2.34;100.00
10852;BME280;5479;52.046;6.314;2023-02-28T02:51:22;103061.34;;;2.30;100.00
10852;BME280;5479;52.046;6.314;2023-02-28T02:53:56;103054.41;;;2.34;100.00
10852;BME280;5479;52.046;6.314;2023-02-28T02:56:30;103057.03;;;2.34;100.00
10852;BME280;5479;52.046;6.314;2023-02-28T02:59:01;103068.28;;;2.28;100.00
10852;BME280;5479;52.046;6.314;2023-02-28T03:01:31;103066.59;;;2.33;100.00
10852;BME280;5479;52.046;6.314;2023-02-28T03:04:03;103061.31;;;2.27;100.00
10852;BME280;5479;52.046;6.314;2023-02-28T03:06:33;103066.59;;;2.33;100.00
10852;BME280;5479;52.046;6.314;2023-02-28T03:09:02;103070.16;;;2.38;100.00
10852;BME280;5479;52.046;6.314;2023-02-28T03:11:31;103069.41;;;2.50;100.00
10852;BME280;5479;52.046;6.314;2023-02-28T03:20:15;103063.06;;;2.28;100.00
10852;BME280;5479;52.046;6.314;2023-02-28T03:22:51;103061.28;;;2.24;100.00
10852;BME280;5479;52.046;6.314;2023-02-28T03:25:29;103069.09;;;2.21;100.00
10852;BME280;5479;52.046;6.314;2023-02-28T03:28:03;103063.22;;;2.40;100.00
10852;BME280;5479;52.046;6.314;2023-02-28T03:30:39;103061.31;;;2.27;100.00
10852;BME280;5479;52.046;6.314;2023-02-28T03:33:11;103057.88;;;2.33;100.00
10852;BME280;5479;52.046;6.314;2023-02-28T03:35:45;103059.63;;;2.32;100.00
10852;BME280;5479;52.046;6.314;2023-02-28T03:38:20;103049.88;;;2.18;100.00
10852;BME280;5479;52.046;6.314;2023-02-28T03:40:53;103059.41;;;2.11;100.00
10852;BME280;5479;52.046;6.314;2023-02-28T03:43:26;103061.38;;;2.33;100.00
10852;BME280;5479;52.046;6.314;2023-02-28T03:45:56;103054.22;;;2.17;100.00
10852;BME280;5479;52.046;6.314;2023-02-28T03:48:32;103058.41;;;2.00;100.00
10852;BME280;5479;52.046;6.314;2023-02-28T03:51:05;103049.84;;;2.13;100.00
10852;BME280;5479;52.046;6.314;2023-02-28T03:53:39;103057.81;;;2.24;100.00
10852;BME280;5479;52.046;6.314;2023-02-28T03:56:13;103049.75;;;2.07;100.00
10852;BME280;5479;52.046;6.314;2023-02-28T03:58:47;103048.81;;;2.01;100.00
10852;BME280;5479;52.046;6.314;2023-02-28T04:01:20;103050.44;;;1.91;100.00
10852;BME280;5479;52.046;6.314;2023-02-28T04:03:49;103045.13;;;1.85;100.00
10852;BME280;5479;52.046;6.314;2023-02-28T04:06:19;103046.03;;;1.86;100.00
10852;BME280;5479;52.046;6.314;2023-02-28T04:08:49;103038.38;;;2.02;100.00
10852;BME280;5479;52.046;6.314;2023-02-28T04:11:21;103040.97;;;1.99;100.00
10852;BME280;5479;52.046;6.314;2023-02-28T04:13:49;103036.44;;;1.85;100.00
10852;BME280;5479;52.046;6.314;2023-02-28T04:16:20;103047.69;;;1.79;100.00
10852;BME280;5479;52.046;6.314;2023-02-28T04:18:50;103049.31;;;1.69;100.00
10852;BME280;5479;52.046;6.314;2023-02-28T04:21:18;103049.47;;;1.81;100.00
10852;BME280;5479;52.046;6.314;2023-02-28T04:23:49;103042.56;;;1.87;100.00
10852;BME280;5479;52.046;6.314;2023-02-28T04:26:17;103046.00;;;1.84;100.00
10852;BME280;5479;52.046;6.314;2023-02-28T04:28:45;103041.59;;;1.80;100.00
10852;BME280;5479;52.046;6.314;2023-02-28T04:31:13;103044.38;;;1.92;100.00
10852;BME280;5479;52.046;6.314;2023-02-28T04:33:42;103050.59;;;2.03;100.00
10852;BME280;5479;52.046;6.314;2023-02-28T04:36:10;103045.25;;;1.96;100.00
10852;BME280;5479;52.046;6.314;2023-02-28T04:38:38;103042.72;;;2.00;100.00
10852;BME280;5479;52.046;6.314;2023-02-28T04:41:08;103041.81;;;1.98;100.00
10852;BME280;5479;52.046;6.314;2023-02-28T04:43:35;103047.00;;;1.92;100.00
10852;BME280;5479;52.046;6.314;2023-02-28T04:46:05;103055.72;;;1.94;100.00
10852;BME280;5479;52.046;6.314;2023-02-28T04:48:35;103062.72;;;1.95;100.00
10852;BME280;5479;52.046;6.314;2023-02-28T04:51:05;103062.84;;;2.06;100.00
10852;BME280;5479;52.046;6.314;2023-02-28T04:53:33;103056.72;;;2.05;100.00
10852;BME280;5479;52.046;6.314;2023-02-28T04:56:01;103063.56;;;1.94;100.00
10852;BME280;5479;52.046;6.314;2023-02-28T04:58:33;103069.59;;;1.90;100.00
10852;BME280;5479;52.046;6.314;2023-02-28T05:01:02;103055.72;;;1.94;100.00
10852;BME280;5479;52.046;6.314;2023-02-28T05:03:30;103067.94;;;1.95;100.00
10852;BME280;5479;52.046;6.314;2023-02-28T05:05:58;103071.69;;;2.18;100.00
10852;BME280;5479;52.046;6.314;2023-02-28T05:08:26;103066.34;;;2.08;100.00
10852;BME280;5479;52.046;6.314;2023-02-28T05:10:56;103056.72;;;2.05;100.00
10852;BME280;5479;52.046;6.314;2023-02-28T05:13:24;103070.75;;;2.15;100.00
10852;BME280;5479;52.046;6.314;2023-02-28T05:15:53;103066.38;;;2.12;100.00
10852;BME280;5479;52.046;6.314;2023-02-28T05:18:21;103062.72;;;1.98;100.00
10852;BME280;5479;52.046;6.314;2023-02-28T05:20:49;103066.25;;;2.00;100.00
10852;BME280;5479;52.046;6.314;2023-02-28T05:23:17;103062.88;;;2.10;100.00
10852;BME280;5479;52.046;6.314;2023-02-28T05:25:47;103062.78;;;2.03;100.00
10852;BME280;5479;52.046;6.314;2023-02-28T05:28:15;103061.81;;;1.96;100.00
10852;BME280;5479;52.046;6.314;2023-02-28T05:30:43;103067.94;;;1.98;100.00
10852;BME280;5479;52.046;6.314;2023-02-28T05:33:13;103074.81;;;1.87;100.00
10852;BME280;5479;52.046;6.314;2023-02-28T05:35:41;103067.97;;;2.00;100.00
10852;BME280;5479;52.046;6.314;2023-02-28T05:38:10;103067.00;;;1.93;100.00
10852;BME280;5479;52.046;6.314;2023-02-28T05:40:38;103072.19;;;1.87;100.00
10852;BME280;5479;52.046;6.314;2023-02-28T05:43:10;103080.78;;;1.80;100.00
10852;BME280;5479;52.046;6.314;2023-02-28T05:45:38;103075.84;;;2.03;100.00
10852;BME280;5479;52.046;6.314;2023-02-28T05:48:07;103085.72;;;2.26;100.00
10852;BME280;5479;52.046;6.314;2023-02-28T05:50:37;103082.69;;;1.92;100.00
10852;BME280;5479;52.046;6.314;2023-02-28T05:53:04;103089.66;;;1.91;100.00
10852;BME280;5479;52.046;6.314;2023-02-28T05:55:32;103078.16;;;1.80;100.00
10852;BME280;5479;52.046;6.314;2023-02-28T05:58:02;103078.88;;;1.65;100.00
10852;BME280;5479;52.046;6.314;2023-02-28T06:00:30;103098.69;;;1.53;100.00
10852;BME280;5479;52.046;6.314;2023-02-28T06:02:58;103090.16;;;1.63;100.00
10852;BME280;5479;52.046;6.314;2023-02-28T06:05:28;103092.69;;;1.58;100.00
10852;BME280;5479;52.046;6.314;2023-02-28T06:07:57;103098.69;;;1.53;100.00
10852;BME280;5479;52.046;6.314;2023-02-28T06:10:25;103094.25;;;1.46;100.00
10852;BME280;5479;52.046;6.314;2023-02-28T06:12:53;103108.19;;;1.48;100.00
10852;BME280;5479;52.046;6.314;2023-02-28T06:15:22;103109.28;;;1.62;100.00
10852;BME280;5479;52.046;6.314;2023-02-28T06:17:50;103113.72;;;1.67;100.00
10852;BME280;5479;52.046;6.314;2023-02-28T06:20:19;103109.19;;;1.54;100.00
10852;BME280;5479;52.046;6.314;2023-02-28T06:22:46;103115.13;;;1.47;100.00
10852;BME280;5479;52.046;6.314;2023-02-28T06:25:16;103116.97;;;1.53;100.00
10852;BME280;5479;52.046;6.314;2023-02-28T06:27:44;103110.84;;;1.49;100.00
10852;BME280;5479;52.046;6.314;2023-02-28T06:30:13;103109.13;;;1.50;100.00
10852;BME280;5479;52.046;6.314;2023-02-28T06:32:41;103116.16;;;1.57;100.00
10852;BME280;5479;52.046;6.314;2023-02-28T06:35:15;103117.88;;;1.55;100.00
10852;BME280;5479;52.046;6.314;2023-02-28T06:37:43;103116.19;;;1.58;100.00
10852;BME280;5479;52.046;6.314;2023-02-28T06:40:12;103120.63;;;1.64;100.00
10852;BME280;5479;52.046;6.314;2023-02-28T06:42:42;103122.44;;;1.69;100.00
10852;BME280;5479;52.046;6.314;2023-02-28T06:45:10;103125.16;;;1.77;100.00
10852;BME280;5479;52.046;6.314;2023-02-28T06:47:41;103123.47;;;1.79;100.00
10852;BME280;5479;52.046;6.314;2023-02-28T06:50:11;103125.44;;;1.98;100.00
10852;BME280;5479;52.046;6.314;2023-02-28T06:52:39;103129.75;;;1.95;100.00
10852;BME280;5479;52.046;6.314;2023-02-28T06:55:08;103131.66;;;2.08;100.00
10852;BME280;5479;52.046;6.314;2023-02-28T06:57:36;103130.97;;;2.22;100.00
10852;BME280;5479;52.046;6.314;2023-02-28T07:00:08;103125.97;;;2.40;100.00
10852;BME280;5479;52.046;6.314;2023-02-28T07:02:37;103131.22;;;2.43;100.00
10852;BME280;5479;52.046;6.314;2023-02-28T07:05:07;103126.94;;;2.50;100.00
10852;BME280;5479;52.046;6.314;2023-02-28T07:07:35;103129.66;;;2.59;100.00
10852;BME280;5479;52.046;6.314;2023-02-28T07:10:05;103127.97;;;2.64;100.00
10852;BME280;5479;52.046;6.314;2023-02-28T07:12:33;103125.50;;;2.78;100.00
10852;BME280;5479;52.046;6.314;2023-02-28T07:15:01;103128.56;;;3.32;100.00
10852;BME280;5479;52.046;6.314;2023-02-28T07:17:31;103128.06;;;3.91;100.00
10852;BME280;5479;52.046;6.314;2023-02-28T07:19:58;103137.03;;;4.43;100.00
10852;BME280;5479;52.046;6.314;2023-02-28T07:22:26;103131.03;;;5.21;99.89
10852;BME280;5479;52.046;6.314;2023-02-28T07:24:55;103135.28;;;6.03;89.93
10852;BME280;5479;52.046;6.314;2023-02-28T07:27:23;103132.44;;;6.52;81.73
10852;BME280;5479;52.046;6.314;2023-02-28T07:29:52;103129.59;;;6.84;75.57
10852;BME280;5479;52.046;6.314;2023-02-28T07:32:21;103134.84;;;6.82;72.19
10852;BME280;5479;52.046;6.314;2023-02-28T07:34:51;103133.94;;;6.89;72.52
10852;BME280;5479;52.046;6.314;2023-02-28T07:37:19;103138.03;;;7.26;71.46
10852;BME280;5479;52.046;6.314;2023-02-28T07:39:47;103135.75;;;7.80;66.55
10852;BME280;5479;52.046;6.314;2023-02-28T07:42:14;103131.22;;;7.94;65.26
10852;BME280;5479;52.046;6.314;2023-02-28T07:44:42;103136.25;;;8.15;62.85
10852;BME280;5479;52.046;6.314;2023-02-28T07:47:10;103136.50;;;7.94;61.29
10852;BME280;5479;52.046;6.314;2023-02-28T07:49:38;103139.09;;;7.96;62.72
10852;BME280;5479;52.046;6.314;2023-02-28T07:52:08;103126.47;;;8.23;60.19
10852;BME280;5479;52.046;6.314;2023-02-28T07:54:35;103132.53;;;8.31;57.32
10852;BME280;5479;52.046;6.314;2023-02-28T07:57:03;103136.88;;;8.37;57.40
10852;BME280;5479;52.046;6.314;2023-02-28T07:59:31;103135.69;;;8.58;56.81
10852;BME280;5479;52.046;6.314;2023-02-28T08:01:59;103131.28;;;9.16;54.52
10852;BME280;5479;52.046;6.314;2023-02-28T08:04:27;103137.00;;;8.90;52.60
10852;BME280;5479;52.046;6.314;2023-02-28T08:06:55;103136.97;;;9.44;50.59
10852;BME280;5479;52.046;6.314;2023-02-28T08:09:24;103139.81;;;9.81;49.58
10852;BME280;5479;52.046;6.314;2023-02-28T08:11:53;103142.69;;;9.18;47.23
10852;BME280;5479;52.046;6.314;2023-02-28T08:14:22;103139.81;;;9.32;46.92
10852;BME280;5479;52.046;6.314;2023-02-28T08:16:50;103151.66;;;7.71;46.62
10852;BME280;5479;52.046;6.314;2023-02-28T08:19:18;103151.59;;;6.78;48.89
10852;BME280;5479;52.046;6.314;2023-02-28T08:21:46;103152.75;;;6.18;50.16
10852;BME280;5479;52.046;6.314;2023-02-28T08:24:15;103154.63;;;5.80;49.87
10852;BME280;5479;52.046;6.314;2023-02-28T08:26:44;103161.66;;;5.58;51.05
10852;BME280;5479;52.046;6.314;2023-02-28T08:29:12;103152.84;;;5.95;50.52
10852;BME280;5479;52.046;6.314;2023-02-28T08:31:40;103157.28;;;5.59;50.85
10852;BME280;5479;52.046;6.314;2023-02-28T08:34:11;103153.75;;;5.85;51.91
10852;BME280;5479;52.046;6.314;2023-02-28T08:36:39;103159.84;;;5.84;49.53
10852;BME280;5479;52.046;6.314;2023-02-28T08:39:07;103150.09;;;7.52;47.54
10852;BME280;5479;52.046;6.314;2023-02-28T08:41:35;103146.78;;;8.15;43.51
10852;BME280;5479;52.046;6.314;2023-02-28T08:44:04;103145.47;;;7.78;45.16
10852;BME280;5479;52.046;6.314;2023-02-28T08:46:32;103140.28;;;7.69;43.26
10852;BME280;5479;52.046;6.314;2023-02-28T08:49:00;103150.75;;;7.78;43.47
10852;BME280;5479;52.046;6.314;2023-02-28T08:51:28;103151.75;;;7.63;43.25
10852;BME280;5479;52.046;6.314;2023-02-28T08:53:59;103148.25;;;7.60;43.49
10852;BME280;5479;52.046;6.314;2023-02-28T08:56:27;103138.88;;;7.32;44.49
10852;BME280;5479;52.046;6.314;2023-02-28T08:58:56;103138.75;;;8.29;41.02
10852;BME280;5479;52.046;6.314;2023-02-28T09:01:28;103136.47;;;8.66;38.47
10852;BME280;5479;52.046;6.314;2023-02-28T09:03:58;103147.19;;;6.77;41.79
10852;BME280;5479;52.046;6.314;2023-02-28T09:06:27;103144.75;;;6.47;43.58
10852;BME280;5479;52.046;6.314;2023-02-28T09:08:56;103147.28;;;6.65;44.64
10852;BME280;5479;52.046;6.314;2023-02-28T09:11:26;103146.22;;;6.90;44.82
10852;BME280;5479;52.046;6.314;2023-02-28T09:13:54;103145.44;;;7.81;42.18
10852;BME280;5479;52.046;6.314;2023-02-28T09:16:23;103143.03;;;8.36;42.14
10852;BME280;5479;52.046;6.314;2023-02-28T09:18:52;103151.06;;;8.28;42.47
10852;BME280;5479;52.046;6.314;2023-02-28T09:21:20;103149.03;;;7.71;41.85
10852;BME280;5479;52.046;6.314;2023-02-28T09:23:49;103146.09;;;7.98;41.74
10852;BME280;5479;52.046;6.314;2023-02-28T09:26:20;103139.69;;;9.39;40.32
10852;BME280;5479;52.046;6.314;2023-02-28T09:28:49;103141.28;;;8.36;39.74
10852;BME280;5479;52.046;6.314;2023-02-28T09:31:19;103145.91;;;8.82;39.92
10852;BME280;5479;52.046;6.314;2023-02-28T09:33:48;103139.72;;;8.83;37.61
10852;BME280;5479;52.046;6.314;2023-02-28T09:36:18;103134.66;;;9.24;37.23
10852;BME280;5479;52.046;6.314;2023-02-28T09:38:46;103134.13;;;8.44;40.15
10852;BME280;5479;52.046;6.314;2023-02-28T09:41:16;103150.09;;;7.53;40.07
10852;BME280;5479;52.046;6.314;2023-02-28T09:43:47;103142.25;;;7.49;41.15
10852;BME280;5479;52.046;6.314;2023-02-28T09:46:27;103137.47;;;7.85;40.21
10852;BME280;5479;52.046;6.314;2023-02-28T09:48:59;103134.34;;;8.26;39.05
10852;BME280;5479;52.046;6.314;2023-02-28T09:51:37;103129.44;;;8.65;38.97
10852;BME280;5479;52.046;6.314;2023-02-28T09:54:14;103132.06;;;8.65;39.75
10852;BME280;5479;52.046;6.314;2023-02-28T09:56:49;103121.91;;;9.49;36.94
10852;BME280;5479;52.046;6.314;2023-02-28T09:59:29;103118.38;;;8.98;39.60
10852;BME280;5479;52.046;6.314;2023-02-28T10:02:04;103126.22;;;9.54;38.29
10852;BME280;5479;52.046;6.314;2023-02-28T10:04:42;103129.97;;;8.88;38.54
10852;BME280;5479;52.046;6.314;2023-02-28T10:07:21;103131.91;;;8.75;38.42
10852;BME280;5479;52.046;6.314;2023-02-28T10:09:55;103131.50;;;7.67;39.96
10852;BME280;5479;52.046;6.314;2023-02-28T10:12:25;103140.00;;;7.93;40.18
10852;BME280;5479;52.046;6.314;2023-02-28T10:14:57;103136.81;;;8.40;37.86
10852;BME280;5479;52.046;6.314;2023-02-28T10:17:33;103126.94;;;8.54;37.70
10852;BME280;5479;52.046;6.314;2023-02-28T10:20:07;103122.47;;;8.59;38.14
10852;BME280;5479;52.046;6.314;2023-02-28T10:22:49;103128.00;;;8.41;39.83
10852;BME280;5479;52.046;6.314;2023-02-28T10:25:21;103120.00;;;8.45;39.14
10852;BME280;5479;52.046;6.314;2023-02-28T10:27:54;103118.31;;;9.01;36.49
10852;BME280;5479;52.046;6.314;2023-02-28T10:30:25;103118.56;;;8.83;37.14
10852;BME280;5479;52.046;6.314;2023-02-28T10:32:53;103113.84;;;8.46;37.51
10852;BME280;5479;52.046;6.314;2023-02-28T10:35:22;103115.66;;;8.43;38.48
10852;BME280;5479;52.046;6.314;2023-02-28T10:37:54;103114.94;;;8.32;38.55
10852;BME280;5479;52.046;6.314;2023-02-28T10:40:37;103119.66;;;8.70;39.31
10852;BME280;5479;52.046;6.314;2023-02-28T10:43:16;103126.31;;;8.37;39.32
10852;BME280;5479;52.046;6.314;2023-02-28T10:45:59;103113.22;;;8.26;39.74
10852;BME280;5479;52.046;6.314;2023-02-28T10:48:32;103116.97;;;8.07;39.28
10852;BME280;5479;52.046;6.314;2023-02-28T10:51:01;103110.78;;;9.30;38.75
10852;BME280;5479;52.046;6.314;2023-02-28T10:53:35;103120.50;;;9.76;37.42
10852;BME280;5479;52.046;6.314;2023-02-28T10:56:12;103113.66;;;9.15;36.90
10852;BME280;5479;52.046;6.314;2023-02-28T10:58:50;103102.56;;;9.45;36.16
10852;BME280;5479;52.046;6.314;2023-02-28T11:01:20;103102.44;;;8.44;38.26
10852;BME280;5479;52.046;6.314;2023-02-28T11:03:48;103099.22;;;9.34;36.64
10852;BME280;5479;52.046;6.314;2023-02-28T11:06:19;103093.69;;;9.94;36.49
10852;BME280;5479;52.046;6.314;2023-02-28T11:08:52;103091.09;;;9.91;36.16
10852;BME280;5479;52.046;6.314;2023-02-28T11:11:22;103098.16;;;9.44;36.69
10852;BME280;5479;52.046;6.314;2023-02-28T11:13:54;103100.78;;;9.92;36.43
10852;BME280;5479;52.046;6.314;2023-02-28T11:16:31;103099.28;;;9.77;34.56
10852;BME280;5479;52.046;6.314;2023-02-28T11:19:02;103088.59;;;9.37;35.34
10852;BME280;5479;52.046;6.314;2023-02-28T11:21:34;103097.75;;;9.20;36.73
10852;BME280;5479;52.046;6.314;2023-02-28T11:24:19;103089.31;;;9.45;36.04
10852;BME280;5479;52.046;6.314;2023-02-28T11:26:50;103090.16;;;9.49;35.71
10852;BME280;5479;52.046;6.314;2023-02-28T11:29:20;103085.13;;;9.34;35.53
10852;BME280;5479;52.046;6.314;2023-02-28T11:32:11;103089.00;;;8.61;35.38
10852;BME280;5479;52.046;6.314;2023-02-28T11:34:40;103090.88;;;8.53;36.37
10852;BME280;5479;52.046;6.314;2023-02-28T11:37:14;103080.56;;;9.42;36.16
10852;BME280;5479;52.046;6.314;2023-02-28T11:39:45;103069.44;;;9.25;35.72
10852;BME280;5479;52.046;6.314;2023-02-28T11:45:24;103082.25;;;8.97;36.02
10852;BME280;5479;52.046;6.314;2023-02-28T11:48:01;103077.97;;;8.90;36.02
10852;BME280;5479;52.046;6.314;2023-02-28T11:50:43;103075.63;;;8.72;37.02
10852;BME280;5479;52.046;6.314;2023-02-28T11:53:20;103078.13;;;8.18;37.28
10852;BME280;5479;52.046;6.314;2023-02-28T11:55:54;103078.97;;;8.20;37.89
10852;BME280;5479;52.046;6.314;2023-02-28T11:58:34;103081.78;;;8.71;36.61
10852;BME280;5479;52.046;6.314;2023-02-28T12:04:21;103075.31;;;8.33;36.74
10852;BME280;5479;52.046;6.314;2023-02-28T12:06:57;103060.31;;;8.35;37.78
10852;BME280;5479;52.046;6.314;2023-02-28T12:09:39;103066.44;;;8.39;37.11
10852;BME280;5479;52.046;6.314;2023-02-28T12:12:26;103060.44;;;8.26;38.20
10852;BME280;5479;52.046;6.314;2023-02-28T12:15:06;103058.59;;;8.34;38.00
10852;BME280;5479;52.046;6.314;2023-02-28T12:17:51;103051.81;;;8.12;37.84
10852;BME280;5479;52.046;6.314;2023-02-28T12:20:31;103055.63;;;7.90;39.30
10852;BME280;5479;52.046;6.314;2023-02-28T12:23:17;103057.19;;;8.03;37.97
10852;BME280;5479;52.046;6.314;2023-02-28T12:25:58;103053.19;;;7.73;38.91
10852;BME280;5479;52.046;6.314;2023-02-28T12:28:32;103053.44;;;7.51;39.17
10852;BME280;5479;52.046;6.314;2023-02-28T12:31:05;103048.81;;;7.71;39.09
10852;BME280;5479;52.046;6.314;2023-02-28T12:33:39;103056.25;;;8.09;39.40
10852;BME280;5479;52.046;6.314;2023-02-28T12:36:11;103047.72;;;7.88;39.35
10852;BME280;5479;52.046;6.314;2023-02-28T12:38:45;103045.81;;;8.01;40.00
10852;BME280;5479;52.046;6.314;2023-02-28T12:41:18;103032.34;;;8.21;37.68
10852;BME280;5479;52.046;6.314;2023-02-28T12:44:01;103023.63;;;8.14;38.68
10852;BME280;5479;52.046;6.314;2023-02-28T12:46:35;103027.88;;;7.59;40.28
10852;BME280;5479;52.046;6.314;2023-02-28T12:49:08;103031.47;;;7.50;40.47
10852;BME280;5479;52.046;6.314;2023-02-28T12:51:37;103018.50;;;7.30;39.52
10852;BME280;5479;52.046;6.314;2023-02-28T12:54:12;103021.22;;;7.23;39.21
10852;BME280;5479;52.046;6.314;2023-02-28T12:56:47;103028.53;;;6.95;40.16
10852;BME280;5479;52.046;6.314;2023-02-28T12:59:24;103018.38;;;6.50;41.32
10852;BME280;5479;52.046;6.314;2023-02-28T13:02:02;103009.59;;;6.48;41.59
10852;BME280;5479;52.046;6.314;2023-02-28T13:04:57;103014.78;;;6.60;40.64
10852;BME280;5479;52.046;6.314;2023-02-28T13:07:49;103011.28;;;6.59;41.49
10852;BME280;5479;52.046;6.314;2023-02-28T13:10:22;103006.13;;;6.46;43.03
10852;BME280;5479;52.046;6.314;2023-02-28T13:12:53;103008.53;;;6.72;42.37
10852;BME280;5479;52.046;6.314;2023-02-28T13:15:26;103001.53;;;6.69;40.87
10852;BME280;5479;52.046;6.314;2023-02-28T13:17:57;103004.25;;;6.63;41.79
10852;BME280;5479;52.046;6.314;2023-02-28T13:20:29;103011.06;;;6.82;41.62
10852;BME280;5479;52.046;6.314;2023-02-28T13:22:59;102994.47;;;6.76;41.34
10852;BME280;5479;52.046;6.314;2023-02-28T13:25:52;102994.56;;;6.63;40.66
10852;BME280;5479;52.046;6.314;2023-02-28T13:34:46;103003.41;;;6.58;41.46
10852;BME280;5479;52.046;6.314;2023-02-28T13:37:34;103001.59;;;6.63;41.46
10852;BME280;5479;52.046;6.314;2023-02-28T13:40:27;102979.75;;;6.52;41.33
10852;BME280;5479;52.046;6.314;2023-02-28T13:42:55;102985.00;;;6.52;40.82
10852;BME280;5479;52.046;6.314;2023-02-28T13:45:26;102982.34;;;6.53;40.40
10852;BME280;5479;52.046;6.314;2023-02-28T13:47:59;102985.00;;;6.55;42.12
10852;BME280;5479;52.046;6.314;2023-02-28T13:50:33;102987.31;;;6.88;42.73